sensor_id;sensor_type;location;lat;lon;timestamp;P1;durP1;ratioP1;P2;durP2;ratioP2
68792;SDS011;55778;54.346;10.210;2023-03-14T00:02:25;14.80;;;2.35;;
68792;SDS011;55778;54.346;10.210;2023-03-14T00:04:53;15.23;;;4.32;;
68792;SDS011;55778;54.346;10.210;2023-03-14T00:07:19;12.57;;;1.85;;
68792;SDS011;55778;54.346;10.210;2023-03-14T00:09:45;11.20;;;1.70;;
68792;SDS011;55778;54.346;10.210;2023-03-14T00:12:10;9.80;;;1.92;;
68792;SDS011;55778;54.346;10.210;2023-03-14T00:14:36;13.57;;;2.35;;
68792;SDS011;55778;54.346;10.210;2023-03-14T00:17:01;17.70;;;3.72;;
68792;SDS011;55778;54.346;10.210;2023-03-14T00:19:27;14.45;;;2.05;;
68792;SDS011;55778;54.346;10.210;2023-03-14T00:21:52;15.63;;;2.67;;
68792;SDS011;55778;54.346;10.210;2023-03-14T00:24:20;12.00;;;1.88;;
68792;SDS011;55778;54.346;10.210;2023-03-14T00:26:46;11.85;;;2.20;;
68792;SDS011;55778;54.346;10.210;2023-03-14T00:29:11;16.77;;;2.50;;
68792;SDS011;55778;54.346;10.210;2023-03-14T00:31:36;12.77;;;1.98;;
68792;SDS011;55778;54.346;10.210;2023-03-14T00:34:04;13.88;;;2.13;;
68792;SDS011;55778;54.346;10.210;2023-03-14T00:36:29;8.73;;;1.95;;
68792;SDS011;55778;54.346;10.210;2023-03-14T00:38:55;17.55;;;2.30;;
68792;SDS011;55778;54.346;10.210;2023-03-14T00:41:21;14.30;;;2.63;;
68792;SDS011;55778;54.346;10.210;2023-03-14T00:43:48;19.13;;;2.70;;
68792;SDS011;55778;54.346;10.210;2023-03-14T00:46:13;7.53;;;1.63;;
68792;SDS011;55778;54.346;10.210;2023-03-14T00:48:39;15.95;;;3.25;;
68792;SDS011;55778;54.346;10.210;2023-03-14T00:51:05;9.95;;;2.55;;
68792;SDS011;55778;54.346;10.210;2023-03-14T00:53:32;20.30;;;2.58;;
68792;SDS011;55778;54.346;10.210;2023-03-14T00:56:02;19.02;;;2.40;;
68792;SDS011;55778;54.346;10.210;2023-03-14T00:58:29;15.55;;;2.92;;
68792;SDS011;55778;54.346;10.210;2023-03-14T01:00:54;10.23;;;2.10;;
68792;SDS011;55778;54.346;10.210;2023-03-14T01:03:19;14.48;;;2.92;;
68792;SDS011;55778;54.346;10.210;2023-03-14T01:05:45;12.38;;;2.05;;
68792;SDS011;55778;54.346;10.210;2023-03-14T01:08:10;12.90;;;2.40;;
68792;SDS011;55778;54.346;10.210;2023-03-14T01:10:39;15.63;;;2.22;;
68792;SDS011;55778;54.346;10.210;2023-03-14T01:13:05;12.57;;;2.00;;
68792;SDS011;55778;54.346;10.210;2023-03-14T01:15:32;15.15;;;2.00;;
68792;SDS011;55778;54.346;10.210;2023-03-14T01:17:58;14.82;;;2.80;;
68792;SDS011;55778;54.346;10.210;2023-03-14T01:20:24;15.43;;;2.42;;
68792;SDS011;55778;54.346;10.210;2023-03-14T01:22:49;19.08;;;2.10;;
68792;SDS011;55778;54.346;10.210;2023-03-14T01:25:15;14.52;;;2.10;;
68792;SDS011;55778;54.346;10.210;2023-03-14T01:27:41;15.77;;;2.83;;
68792;SDS011;55778;54.346;10.210;2023-03-14T01:30:07;12.05;;;1.90;;
68792;SDS011;55778;54.346;10.210;2023-03-14T01:32:34;10.45;;;2.40;;
68792;SDS011;55778;54.346;10.210;2023-03-14T01:34:59;10.45;;;2.08;;
68792;SDS011;55778;54.346;10.210;2023-03-14T01:37:25;15.45;;;3.50;;
68792;SDS011;55778;54.346;10.210;2023-03-14T01:39:50;14.10;;;2.50;;
68792;SDS011;55778;54.346;10.210;2023-03-14T01:42:16;7.07;;;1.30;;
68792;SDS011;55778;54.346;10.210;2023-03-14T01:44:48;9.43;;;1.90;;
68792;SDS011;55778;54.346;10.210;2023-03-14T01:47:14;5.88;;;1.50;;
68792;SDS011;55778;54.346;10.210;2023-03-14T01:49:39;13.25;;;2.67;;
68792;SDS011;55778;54.346;10.210;2023-03-14T01:55:09;8.70;;;1.70;;
68792;SDS011;55778;54.346;10.210;2023-03-14T01:57:52;11.68;;;2.10;;
68792;SDS011;55778;54.346;10.210;2023-03-14T02:00:21;11.73;;;2.35;;
68792;SDS011;55778;54.346;10.210;2023-03-14T02:02:49;13.50;;;3.22;;
68792;SDS011;55778;54.346;10.210;2023-03-14T02:05:31;15.50;;;3.03;;
68792;SDS011;55778;54.346;10.210;2023-03-14T02:08:00;11.30;;;1.95;;
68792;SDS011;55778;54.346;10.210;2023-03-14T02:10:28;10.70;;;2.28;;
68792;SDS011;55778;54.346;10.210;2023-03-14T02:15:24;8.95;;;1.77;;
68792;SDS011;55778;54.346;10.210;2023-03-14T02:17:50;11.63;;;2.38;;
68792;SDS011;55778;54.346;10.210;2023-03-14T02:23:10;13.07;;;2.58;;
68792;SDS011;55778;54.346;10.210;2023-03-14T02:25:41;9.52;;;2.53;;
68792;SDS011;55778;54.346;10.210;2023-03-14T02:28:13;8.63;;;2.15;;
68792;SDS011;55778;54.346;10.210;2023-03-14T02:30:40;12.60;;;2.20;;
68792;SDS011;55778;54.346;10.210;2023-03-14T02:33:09;12.40;;;2.00;;
68792;SDS011;55778;54.346;10.210;2023-03-14T02:35:39;9.82;;;1.95;;
68792;SDS011;55778;54.346;10.210;2023-03-14T02:38:10;9.55;;;2.10;;
68792;SDS011;55778;54.346;10.210;2023-03-14T02:40:44;5.72;;;1.73;;
68792;SDS011;55778;54.346;10.210;2023-03-14T02:43:09;11.75;;;2.33;;
68792;SDS011;55778;54.346;10.210;2023-03-14T02:45:45;7.60;;;2.08;;
68792;SDS011;55778;54.346;10.210;2023-03-14T02:48:19;13.88;;;2.05;;
68792;SDS011;55778;54.346;10.210;2023-03-14T02:50:48;7.25;;;1.83;;
68792;SDS011;55778;54.346;10.210;2023-03-14T02:53:17;9.68;;;1.95;;
68792;SDS011;55778;54.346;10.210;2023-03-14T02:55:49;11.85;;;2.80;;
68792;SDS011;55778;54.346;10.210;2023-03-14T02:58:15;14.60;;;2.15;;
68792;SDS011;55778;54.346;10.210;2023-03-14T03:00:42;9.95;;;1.98;;
68792;SDS011;55778;54.346;10.210;2023-03-14T03:03:07;8.25;;;1.75;;
68792;SDS011;55778;54.346;10.210;2023-03-14T03:05:33;7.05;;;1.08;;
68792;SDS011;55778;54.346;10.210;2023-03-14T03:07:58;9.30;;;2.42;;
68792;SDS011;55778;54.346;10.210;2023-03-14T03:10:24;10.27;;;1.73;;
68792;SDS011;55778;54.346;10.210;2023-03-14T03:12:49;9.63;;;1.90;;
68792;SDS011;55778;54.346;10.210;2023-03-14T03:15:16;15.52;;;2.10;;
68792;SDS011;55778;54.346;10.210;2023-03-14T03:17:41;11.25;;;2.00;;
68792;SDS011;55778;54.346;10.210;2023-03-14T03:20:07;11.85;;;2.17;;
68792;SDS011;55778;54.346;10.210;2023-03-14T03:22:34;13.57;;;2.60;;
68792;SDS011;55778;54.346;10.210;2023-03-14T03:25:01;11.20;;;1.98;;
68792;SDS011;55778;54.346;10.210;2023-03-14T03:27:29;16.10;;;2.92;;
68792;SDS011;55778;54.346;10.210;2023-03-14T03:29:55;13.68;;;2.03;;
68792;SDS011;55778;54.346;10.210;2023-03-14T03:32:20;11.23;;;3.03;;
68792;SDS011;55778;54.346;10.210;2023-03-14T03:34:46;8.60;;;2.00;;
68792;SDS011;55778;54.346;10.210;2023-03-14T03:37:11;12.93;;;2.38;;
68792;SDS011;55778;54.346;10.210;2023-03-14T03:39:37;4.07;;;1.85;;
68792;SDS011;55778;54.346;10.210;2023-03-14T03:42:02;7.20;;;1.95;;
68792;SDS011;55778;54.346;10.210;2023-03-14T03:44:27;9.43;;;2.10;;
68792;SDS011;55778;54.346;10.210;2023-03-14T03:46:53;11.48;;;2.15;;
68792;SDS011;55778;54.346;10.210;2023-03-14T03:49:18;8.10;;;1.58;;
68792;SDS011;55778;54.346;10.210;2023-03-14T03:51:43;9.60;;;1.88;;
68792;SDS011;55778;54.346;10.210;2023-03-14T03:54:09;9.00;;;1.85;;
68792;SDS011;55778;54.346;10.210;2023-03-14T03:56:34;11.43;;;2.63;;
68792;SDS011;55778;54.346;10.210;2023-03-14T03:58:59;7.82;;;1.95;;
68792;SDS011;55778;54.346;10.210;2023-03-14T04:01:25;10.90;;;2.53;;
68792;SDS011;55778;54.346;10.210;2023-03-14T04:03:50;9.23;;;3.42;;
68792;SDS011;55778;54.346;10.210;2023-03-14T04:06:16;10.52;;;2.80;;
68792;SDS011;55778;54.346;10.210;2023-03-14T04:08:41;9.93;;;2.92;;
68792;SDS011;55778;54.346;10.210;2023-03-14T04:11:06;11.43;;;2.78;;
68792;SDS011;55778;54.346;10.210;2023-03-14T04:13:32;10.50;;;3.85;;
68792;SDS011;55778;54.346;10.210;2023-03-14T04:15:58;13.68;;;3.95;;
68792;SDS011;55778;54.346;10.210;2023-03-14T04:18:23;12.73;;;4.38;;
68792;SDS011;55778;54.346;10.210;2023-03-14T04:20:52;11.75;;;4.53;;
68792;SDS011;55778;54.346;10.210;2023-03-14T04:23:22;12.15;;;4.20;;
68792;SDS011;55778;54.346;10.210;2023-03-14T04:25:49;8.48;;;4.38;;
68792;SDS011;55778;54.346;10.210;2023-03-14T04:28:16;10.02;;;5.15;;
68792;SDS011;55778;54.346;10.210;2023-03-14T04:30:41;6.30;;;3.28;;
68792;SDS011;55778;54.346;10.210;2023-03-14T04:33:07;6.82;;;3.80;;
68792;SDS011;55778;54.346;10.210;2023-03-14T04:35:33;8.90;;;3.53;;
68792;SDS011;55778;54.346;10.210;2023-03-14T04:37:59;9.25;;;4.20;;
68792;SDS011;55778;54.346;10.210;2023-03-14T04:40:25;10.05;;;3.30;;
68792;SDS011;55778;54.346;10.210;2023-03-14T04:42:50;10.70;;;2.95;;
68792;SDS011;55778;54.346;10.210;2023-03-14T04:45:16;9.65;;;3.40;;
68792;SDS011;55778;54.346;10.210;2023-03-14T04:47:41;7.47;;;3.08;;
68792;SDS011;55778;54.346;10.210;2023-03-14T04:50:07;6.85;;;3.20;;
68792;SDS011;55778;54.346;10.210;2023-03-14T04:52:33;10.13;;;3.65;;
68792;SDS011;55778;54.346;10.210;2023-03-14T04:54:59;8.90;;;3.00;;
68792;SDS011;55778;54.346;10.210;2023-03-14T04:57:24;8.90;;;3.17;;
68792;SDS011;55778;54.346;10.210;2023-03-14T04:59:50;8.85;;;3.50;;
68792;SDS011;55778;54.346;10.210;2023-03-14T05:02:15;9.00;;;3.63;;
68792;SDS011;55778;54.346;10.210;2023-03-14T05:04:40;9.68;;;3.22;;
68792;SDS011;55778;54.346;10.210;2023-03-14T05:07:06;9.73;;;4.03;;
68792;SDS011;55778;54.346;10.210;2023-03-14T05:09:31;10.57;;;3.22;;
68792;SDS011;55778;54.346;10.210;2023-03-14T05:11:56;6.15;;;2.58;;
68792;SDS011;55778;54.346;10.210;2023-03-14T05:14:22;6.65;;;2.88;;
68792;SDS011;55778;54.346;10.210;2023-03-14T05:16:47;9.57;;;3.20;;
68792;SDS011;55778;54.346;10.210;2023-03-14T05:19:13;10.32;;;3.97;;
68792;SDS011;55778;54.346;10.210;2023-03-14T05:21:38;4.97;;;2.70;;
68792;SDS011;55778;54.346;10.210;2023-03-14T05:24:03;7.50;;;3.35;;
68792;SDS011;55778;54.346;10.210;2023-03-14T05:26:29;8.20;;;3.20;;
68792;SDS011;55778;54.346;10.210;2023-03-14T05:28:55;9.70;;;2.63;;
68792;SDS011;55778;54.346;10.210;2023-03-14T05:31:20;3.97;;;2.10;;
68792;SDS011;55778;54.346;10.210;2023-03-14T05:33:45;5.07;;;2.10;;
68792;SDS011;55778;54.346;10.210;2023-03-14T05:36:11;3.67;;;1.55;;
68792;SDS011;55778;54.346;10.210;2023-03-14T05:38:40;4.95;;;2.05;;
68792;SDS011;55778;54.346;10.210;2023-03-14T05:41:05;5.10;;;2.40;;
68792;SDS011;55778;54.346;10.210;2023-03-14T05:43:31;5.13;;;1.73;;
68792;SDS011;55778;54.346;10.210;2023-03-14T05:45:56;7.38;;;2.53;;
68792;SDS011;55778;54.346;10.210;2023-03-14T05:48:22;4.15;;;1.65;;
68792;SDS011;55778;54.346;10.210;2023-03-14T05:50:47;4.00;;;1.30;;
68792;SDS011;55778;54.346;10.210;2023-03-14T05:53:13;5.38;;;1.67;;
68792;SDS011;55778;54.346;10.210;2023-03-14T05:55:39;8.98;;;1.90;;
68792;SDS011;55778;54.346;10.210;2023-03-14T05:58:05;5.28;;;1.60;;
68792;SDS011;55778;54.346;10.210;2023-03-14T06:00:31;7.68;;;2.15;;
68792;SDS011;55778;54.346;10.210;2023-03-14T06:02:56;7.78;;;1.70;;
68792;SDS011;55778;54.346;10.210;2023-03-14T06:05:22;8.00;;;1.77;;
68792;SDS011;55778;54.346;10.210;2023-03-14T06:07:47;7.75;;;1.60;;
68792;SDS011;55778;54.346;10.210;2023-03-14T06:10:13;5.72;;;1.83;;
68792;SDS011;55778;54.346;10.210;2023-03-14T06:12:38;6.90;;;1.85;;
68792;SDS011;55778;54.346;10.210;2023-03-14T06:15:04;2.00;;;1.33;;
68792;SDS011;55778;54.346;10.210;2023-03-14T06:17:29;4.50;;;1.65;;
68792;SDS011;55778;54.346;10.210;2023-03-14T06:19:55;5.00;;;1.70;;
68792;SDS011;55778;54.346;10.210;2023-03-14T06:22:20;5.13;;;1.67;;
68792;SDS011;55778;54.346;10.210;2023-03-14T06:24:45;1.80;;;1.15;;
68792;SDS011;55778;54.346;10.210;2023-03-14T06:27:11;9.65;;;2.17;;
68792;SDS011;55778;54.346;10.210;2023-03-14T06:29:36;3.72;;;1.90;;
68792;SDS011;55778;54.346;10.210;2023-03-14T06:32:02;4.63;;;1.52;;
68792;SDS011;55778;54.346;10.210;2023-03-14T06:34:27;4.18;;;1.77;;
68792;SDS011;55778;54.346;10.210;2023-03-14T06:36:53;9.43;;;2.60;;
68792;SDS011;55778;54.346;10.210;2023-03-14T06:39:18;13.77;;;2.95;;
68792;SDS011;55778;54.346;10.210;2023-03-14T06:41:44;8.75;;;2.90;;
68792;SDS011;55778;54.346;10.210;2023-03-14T06:44:10;10.57;;;3.03;;
68792;SDS011;55778;54.346;10.210;2023-03-14T06:46:35;9.93;;;2.40;;
68792;SDS011;55778;54.346;10.210;2023-03-14T06:49:01;7.18;;;2.58;;
68792;SDS011;55778;54.346;10.210;2023-03-14T06:51:26;7.80;;;2.70;;
68792;SDS011;55778;54.346;10.210;2023-03-14T06:53:51;7.60;;;2.97;;
68792;SDS011;55778;54.346;10.210;2023-03-14T06:56:17;5.50;;;2.78;;
68792;SDS011;55778;54.346;10.210;2023-03-14T06:58:42;7.53;;;2.55;;
68792;SDS011;55778;54.346;10.210;2023-03-14T07:01:15;6.78;;;3.13;;
68792;SDS011;55778;54.346;10.210;2023-03-14T07:03:47;7.65;;;2.60;;
68792;SDS011;55778;54.346;10.210;2023-03-14T07:06:13;9.20;;;2.38;;
68792;SDS011;55778;54.346;10.210;2023-03-14T07:08:38;8.15;;;2.33;;
68792;SDS011;55778;54.346;10.210;2023-03-14T07:11:04;7.80;;;2.88;;
68792;SDS011;55778;54.346;10.210;2023-03-14T07:13:30;6.55;;;2.53;;
68792;SDS011;55778;54.346;10.210;2023-03-14T07:15:55;11.15;;;3.08;;
68792;SDS011;55778;54.346;10.210;2023-03-14T07:18:20;7.70;;;2.35;;
68792;SDS011;55778;54.346;10.210;2023-03-14T07:20:46;7.55;;;3.13;;
68792;SDS011;55778;54.346;10.210;2023-03-14T07:23:11;9.25;;;2.67;;
68792;SDS011;55778;54.346;10.210;2023-03-14T07:25:36;7.18;;;2.92;;
68792;SDS011;55778;54.346;10.210;2023-03-14T07:28:02;6.75;;;2.55;;
68792;SDS011;55778;54.346;10.210;2023-03-14T07:30:27;4.78;;;2.35;;
68792;SDS011;55778;54.346;10.210;2023-03-14T07:32:52;10.68;;;3.10;;
68792;SDS011;55778;54.346;10.210;2023-03-14T07:35:18;8.38;;;2.35;;
68792;SDS011;55778;54.346;10.210;2023-03-14T07:37:43;6.20;;;2.40;;
68792;SDS011;55778;54.346;10.210;2023-03-14T07:40:09;9.23;;;3.40;;
68792;SDS011;55778;54.346;10.210;2023-03-14T07:42:36;8.43;;;2.53;;
68792;SDS011;55778;54.346;10.210;2023-03-14T07:45:02;5.88;;;2.67;;
68792;SDS011;55778;54.346;10.210;2023-03-14T07:47:28;6.28;;;2.40;;
68792;SDS011;55778;54.346;10.210;2023-03-14T07:49:53;5.78;;;2.13;;
68792;SDS011;55778;54.346;10.210;2023-03-14T07:52:18;4.50;;;1.73;;
68792;SDS011;55778;54.346;10.210;2023-03-14T07:54:44;4.43;;;2.15;;
68792;SDS011;55778;54.346;10.210;2023-03-14T07:57:09;5.00;;;1.95;;
68792;SDS011;55778;54.346;10.210;2023-03-14T07:59:34;4.10;;;1.80;;
68792;SDS011;55778;54.346;10.210;2023-03-14T08:02:00;9.25;;;2.35;;
68792;SDS011;55778;54.346;10.210;2023-03-14T08:04:25;2.63;;;1.58;;
68792;SDS011;55778;54.346;10.210;2023-03-14T08:06:52;7.45;;;2.00;;
68792;SDS011;55778;54.346;10.210;2023-03-14T08:09:19;10.18;;;2.70;;
68792;SDS011;55778;54.346;10.210;2023-03-14T08:11:44;5.97;;;2.30;;
68792;SDS011;55778;54.346;10.210;2023-03-14T08:14:10;5.90;;;2.05;;
68792;SDS011;55778;54.346;10.210;2023-03-14T08:16:36;3.17;;;1.95;;
68792;SDS011;55778;54.346;10.210;2023-03-14T08:19:01;6.10;;;2.40;;
68792;SDS011;55778;54.346;10.210;2023-03-14T08:21:27;7.72;;;2.78;;
68792;SDS011;55778;54.346;10.210;2023-03-14T08:23:52;7.60;;;2.08;;
68792;SDS011;55778;54.346;10.210;2023-03-14T08:26:17;9.32;;;2.75;;
68792;SDS011;55778;54.346;10.210;2023-03-14T08:28:43;7.05;;;2.22;;
68792;SDS011;55778;54.346;10.210;2023-03-14T08:31:08;10.13;;;3.70;;
68792;SDS011;55778;54.346;10.210;2023-03-14T08:33:34;8.32;;;2.15;;
68792;SDS011;55778;54.346;10.210;2023-03-14T08:36:00;7.80;;;2.40;;
68792;SDS011;55778;54.346;10.210;2023-03-14T08:38:26;6.03;;;2.38;;
68792;SDS011;55778;54.346;10.210;2023-03-14T08:40:55;6.07;;;2.55;;
68792;SDS011;55778;54.346;10.210;2023-03-14T08:43:22;4.10;;;1.77;;
68792;SDS011;55778;54.346;10.210;2023-03-14T08:45:47;3.65;;;1.60;;
68792;SDS011;55778;54.346;10.210;2023-03-14T08:48:12;5.25;;;2.42;;
68792;SDS011;55778;54.346;10.210;2023-03-14T08:50:38;9.35;;;2.63;;
68792;SDS011;55778;54.346;10.210;2023-03-14T08:53:03;7.45;;;2.58;;
68792;SDS011;55778;54.346;10.210;2023-03-14T08:55:29;4.13;;;1.67;;
68792;SDS011;55778;54.346;10.210;2023-03-14T08:57:54;1.73;;;1.30;;
68792;SDS011;55778;54.346;10.210;2023-03-14T09:00:19;0.68;;;0.40;;
68792;SDS011;55778;54.346;10.210;2023-03-14T09:02:45;1.67;;;0.50;;
68792;SDS011;55778;54.346;10.210;2023-03-14T09:05:11;1.02;;;0.40;;
68792;SDS011;55778;54.346;10.210;2023-03-14T09:07:38;2.03;;;1.20;;
68792;SDS011;55778;54.346;10.210;2023-03-14T09:10:04;1.92;;;0.90;;
68792;SDS011;55778;54.346;10.210;2023-03-14T09:12:30;2.30;;;0.82;;
68792;SDS011;55778;54.346;10.210;2023-03-14T09:14:55;4.25;;;0.90;;
68792;SDS011;55778;54.346;10.210;2023-03-14T09:17:21;4.45;;;0.60;;
68792;SDS011;55778;54.346;10.210;2023-03-14T09:19:46;1.27;;;0.80;;
68792;SDS011;55778;54.346;10.210;2023-03-14T09:22:12;5.32;;;0.73;;
68792;SDS011;55778;54.346;10.210;2023-03-14T09:24:37;6.18;;;1.05;;
68792;SDS011;55778;54.346;10.210;2023-03-14T09:27:02;12.48;;;1.08;;
68792;SDS011;55778;54.346;10.210;2023-03-14T09:29:28;4.72;;;0.82;;
68792;SDS011;55778;54.346;10.210;2023-03-14T09:31:53;2.85;;;0.65;;
68792;SDS011;55778;54.346;10.210;2023-03-14T09:34:19;2.17;;;0.93;;
68792;SDS011;55778;54.346;10.210;2023-03-14T09:36:44;2.53;;;0.55;;
68792;SDS011;55778;54.346;10.210;2023-03-14T09:39:10;2.15;;;0.70;;
68792;SDS011;55778;54.346;10.210;2023-03-14T09:41:37;0.70;;;0.50;;
68792;SDS011;55778;54.346;10.210;2023-03-14T09:46:38;1.70;;;0.95;;
68792;SDS011;55778;54.346;10.210;2023-03-14T09:49:14;1.42;;;0.60;;
68792;SDS011;55778;54.346;10.210;2023-03-14T09:51:41;2.72;;;0.82;;
68792;SDS011;55778;54.346;10.210;2023-03-14T09:54:11;2.28;;;0.73;;
68792;SDS011;55778;54.346;10.210;2023-03-14T09:56:47;4.47;;;0.93;;
68792;SDS011;55778;54.346;10.210;2023-03-14T09:59:12;2.42;;;0.80;;
68792;SDS011;55778;54.346;10.210;2023-03-14T10:01:38;3.85;;;0.65;;
68792;SDS011;55778;54.346;10.210;2023-03-14T10:04:06;1.60;;;0.70;;
68792;SDS011;55778;54.346;10.210;2023-03-14T10:06:38;2.90;;;0.80;;
68792;SDS011;55778;54.346;10.210;2023-03-14T10:09:03;1.95;;;0.63;;
68792;SDS011;55778;54.346;10.210;2023-03-14T10:11:30;4.68;;;0.63;;
68792;SDS011;55778;54.346;10.210;2023-03-14T10:14:09;4.53;;;0.70;;
68792;SDS011;55778;54.346;10.210;2023-03-14T10:16:41;2.65;;;0.65;;
68792;SDS011;55778;54.346;10.210;2023-03-14T10:19:15;2.95;;;0.63;;
68792;SDS011;55778;54.346;10.210;2023-03-14T10:21:52;2.67;;;0.60;;
68792;SDS011;55778;54.346;10.210;2023-03-14T10:24:20;3.38;;;0.80;;
68792;SDS011;55778;54.346;10.210;2023-03-14T10:27:22;4.22;;;1.42;;
68792;SDS011;55778;54.346;10.210;2023-03-14T10:32:53;3.70;;;1.42;;
68792;SDS011;55778;54.346;10.210;2023-03-14T10:35:19;3.30;;;0.70;;
68792;SDS011;55778;54.346;10.210;2023-03-14T10:37:51;1.73;;;0.82;;
68792;SDS011;55778;54.346;10.210;2023-03-14T10:40:30;3.17;;;1.50;;
68792;SDS011;55778;54.346;10.210;2023-03-14T10:43:00;3.08;;;0.80;;
68792;SDS011;55778;54.346;10.210;2023-03-14T10:47:58;5.57;;;0.75;;
68792;SDS011;55778;54.346;10.210;2023-03-14T10:50:26;1.48;;;0.60;;
68792;SDS011;55778;54.346;10.210;2023-03-14T10:52:53;3.08;;;1.10;;
68792;SDS011;55778;54.346;10.210;2023-03-14T10:55:19;3.97;;;1.10;;
68792;SDS011;55778;54.346;10.210;2023-03-14T10:57:45;1.25;;;0.55;;
68792;SDS011;55778;54.346;10.210;2023-03-14T11:05:43;3.65;;;1.25;;
68792;SDS011;55778;54.346;10.210;2023-03-14T11:08:38;1.25;;;0.50;;
68792;SDS011;55778;54.346;10.210;2023-03-14T11:25:06;3.17;;;0.82;;
68792;SDS011;55778;54.346;10.210;2023-03-14T11:27:37;2.63;;;0.70;;
68792;SDS011;55778;54.346;10.210;2023-03-14T11:30:18;3.67;;;0.80;;
68792;SDS011;55778;54.346;10.210;2023-03-14T11:35:20;2.95;;;0.90;;
68792;SDS011;55778;54.346;10.210;2023-03-14T11:37:51;3.83;;;0.98;;
68792;SDS011;55778;54.346;10.210;2023-03-14T11:40:20;5.07;;;0.85;;
68792;SDS011;55778;54.346;10.210;2023-03-14T11:42:51;6.55;;;1.50;;
68792;SDS011;55778;54.346;10.210;2023-03-14T11:45:29;1.95;;;0.70;;
68792;SDS011;55778;54.346;10.210;2023-03-14T11:48:24;1.60;;;0.70;;
68792;SDS011;55778;54.346;10.210;2023-03-14T11:50:59;2.03;;;0.75;;
68792;SDS011;55778;54.346;10.210;2023-03-14T11:53:40;3.78;;;1.27;;
68792;SDS011;55778;54.346;10.210;2023-03-14T12:13:16;3.78;;;1.30;;
68792;SDS011;55778;54.346;10.210;2023-03-14T12:15:58;6.50;;;1.00;;
68792;SDS011;55778;54.346;10.210;2023-03-14T12:18:32;8.70;;;0.70;;
68792;SDS011;55778;54.346;10.210;2023-03-14T12:21:03;6.30;;;0.80;;
68792;SDS011;55778;54.346;10.210;2023-03-14T12:23:41;4.22;;;0.98;;
68792;SDS011;55778;54.346;10.210;2023-03-14T12:28:33;7.53;;;0.98;;
68792;SDS011;55778;54.346;10.210;2023-03-14T12:31:31;2.75;;;0.80;;
68792;SDS011;55778;54.346;10.210;2023-03-14T12:45:13;8.20;;;1.15;;
68792;SDS011;55778;54.346;10.210;2023-03-14T12:47:50;3.72;;;0.95;;
68792;SDS011;55778;54.346;10.210;2023-03-14T12:50:43;6.65;;;1.10;;
68792;SDS011;55778;54.346;10.210;2023-03-14T13:01:04;16.58;;;3.90;;
68792;SDS011;55778;54.346;10.210;2023-03-14T13:04:14;13.93;;;3.42;;
68792;SDS011;55778;54.346;10.210;2023-03-14T13:17:10;10.40;;;1.55;;
68792;SDS011;55778;54.346;10.210;2023-03-14T13:19:37;31.70;;;9.00;;
68792;SDS011;55778;54.346;10.210;2023-03-14T13:22:04;12.20;;;1.70;;
68792;SDS011;55778;54.346;10.210;2023-03-14T13:24:38;4.88;;;1.55;;
68792;SDS011;55778;54.346;10.210;2023-03-14T13:27:03;6.30;;;1.55;;
68792;SDS011;55778;54.346;10.210;2023-03-14T13:29:30;6.50;;;2.90;;
68792;SDS011;55778;54.346;10.210;2023-03-14T13:31:57;5.03;;;1.08;;
68792;SDS011;55778;54.346;10.210;2023-03-14T13:34:25;3.72;;;1.25;;
68792;SDS011;55778;54.346;10.210;2023-03-14T13:36:52;5.28;;;1.10;;
68792;SDS011;55778;54.346;10.210;2023-03-14T13:39:19;4.32;;;1.20;;
68792;SDS011;55778;54.346;10.210;2023-03-14T13:41:47;5.07;;;1.48;;
68792;SDS011;55778;54.346;10.210;2023-03-14T13:44:14;3.13;;;0.80;;
68792;SDS011;55778;54.346;10.210;2023-03-14T13:46:42;5.63;;;1.30;;
68792;SDS011;55778;54.346;10.210;2023-03-14T13:49:11;8.88;;;1.20;;
68792;SDS011;55778;54.346;10.210;2023-03-14T13:51:43;4.75;;;1.27;;
68792;SDS011;55778;54.346;10.210;2023-03-14T13:54:13;4.70;;;1.25;;
68792;SDS011;55778;54.346;10.210;2023-03-14T13:56:42;4.55;;;1.10;;
68792;SDS011;55778;54.346;10.210;2023-03-14T13:59:21;2.83;;;0.80;;
68792;SDS011;55778;54.346;10.210;2023-03-14T14:01:48;3.58;;;1.13;;
68792;SDS011;55778;54.346;10.210;2023-03-14T14:04:15;3.72;;;0.85;;
68792;SDS011;55778;54.346;10.210;2023-03-14T14:06:50;1.92;;;0.88;;
68792;SDS011;55778;54.346;10.210;2023-03-14T14:09:25;4.03;;;1.17;;
68792;SDS011;55778;54.346;10.210;2023-03-14T14:12:02;5.40;;;0.70;;
68792;SDS011;55778;54.346;10.210;2023-03-14T14:14:40;3.30;;;0.70;;
68792;SDS011;55778;54.346;10.210;2023-03-14T14:17:11;8.05;;;1.17;;
68792;SDS011;55778;54.346;10.210;2023-03-14T14:19:40;2.58;;;0.70;;
68792;SDS011;55778;54.346;10.210;2023-03-14T14:22:08;3.95;;;0.73;;
68792;SDS011;55778;54.346;10.210;2023-03-14T14:24:35;2.50;;;0.50;;
68792;SDS011;55778;54.346;10.210;2023-03-14T14:34:42;2.47;;;0.88;;
68792;SDS011;55778;54.346;10.210;2023-03-14T14:37:28;2.65;;;0.55;;
68792;SDS011;55778;54.346;10.210;2023-03-14T14:40:07;1.23;;;0.52;;
68792;SDS011;55778;54.346;10.210;2023-03-14T14:42:39;4.47;;;1.13;;
68792;SDS011;55778;54.346;10.210;2023-03-14T14:45:06;3.13;;;0.75;;
68792;SDS011;55778;54.346;10.210;2023-03-14T14:47:47;2.03;;;0.68;;
68792;SDS011;55778;54.346;10.210;2023-03-14T14:50:21;3.80;;;1.25;;
68792;SDS011;55778;54.346;10.210;2023-03-14T14:53:01;4.18;;;0.63;;
68792;SDS011;55778;54.346;10.210;2023-03-14T14:55:32;3.90;;;0.90;;
68792;SDS011;55778;54.346;10.210;2023-03-14T14:58:10;6.22;;;0.85;;
68792;SDS011;55778;54.346;10.210;2023-03-14T15:00:54;7.20;;;1.38;;
68792;SDS011;55778;54.346;10.210;2023-03-14T15:03:35;5.88;;;0.80;;
68792;SDS011;55778;54.346;10.210;2023-03-14T15:06:01;3.67;;;0.75;;
68792;SDS011;55778;54.346;10.210;2023-03-14T15:08:28;8.50;;;1.08;;
68792;SDS011;55778;54.346;10.210;2023-03-14T15:10:58;4.35;;;0.98;;
68792;SDS011;55778;54.346;10.210;2023-03-14T15:13:26;4.45;;;1.08;;
68792;SDS011;55778;54.346;10.210;2023-03-14T15:15:51;4.85;;;1.25;;
68792;SDS011;55778;54.346;10.210;2023-03-14T15:18:24;3.80;;;1.30;;
68792;SDS011;55778;54.346;10.210;2023-03-14T15:20:50;6.07;;;1.05;;
68792;SDS011;55778;54.346;10.210;2023-03-14T15:23:17;4.05;;;1.10;;
68792;SDS011;55778;54.346;10.210;2023-03-14T15:25:44;5.15;;;1.25;;
68792;SDS011;55778;54.346;10.210;2023-03-14T15:28:17;12.45;;;2.33;;
68792;SDS011;55778;54.346;10.210;2023-03-14T15:30:45;5.47;;;1.27;;
68792;SDS011;55778;54.346;10.210;2023-03-14T15:33:15;5.90;;;1.05;;
68792;SDS011;55778;54.346;10.210;2023-03-14T15:35:40;4.82;;;1.48;;
68792;SDS011;55778;54.346;10.210;2023-03-14T15:38:09;5.32;;;1.40;;
68792;SDS011;55778;54.346;10.210;2023-03-14T15:40:39;6.13;;;1.40;;
68792;SDS011;55778;54.346;10.210;2023-03-14T15:43:05;10.30;;;1.90;;
68792;SDS011;55778;54.346;10.210;2023-03-14T15:45:30;7.43;;;2.38;;
68792;SDS011;55778;54.346;10.210;2023-03-14T15:47:56;4.03;;;0.98;;
68792;SDS011;55778;54.346;10.210;2023-03-14T15:50:21;1.58;;;0.80;;
68792;SDS011;55778;54.346;10.210;2023-03-14T15:52:47;3.53;;;1.17;;
68792;SDS011;55778;54.346;10.210;2023-03-14T15:55:13;5.82;;;1.75;;
68792;SDS011;55778;54.346;10.210;2023-03-14T15:57:39;6.63;;;1.48;;
68792;SDS011;55778;54.346;10.210;2023-03-14T16:00:05;3.80;;;0.80;;
68792;SDS011;55778;54.346;10.210;2023-03-14T16:02:36;8.25;;;1.65;;
68792;SDS011;55778;54.346;10.210;2023-03-14T16:05:06;2.92;;;0.80;;
68792;SDS011;55778;54.346;10.210;2023-03-14T16:07:35;5.25;;;1.85;;
68792;SDS011;55778;54.346;10.210;2023-03-14T16:10:04;7.93;;;1.60;;
68792;SDS011;55778;54.346;10.210;2023-03-14T16:12:31;5.65;;;1.25;;